createdAt,value
2022-09-28T00:01:07.846Z,8.93
2022-09-28T00:03:36.114Z,9.20
2022-09-28T00:06:06.938Z,9.02
2022-09-28T00:08:35.911Z,8.70
2022-09-28T00:11:05.890Z,9.50
2022-09-28T00:13:34.130Z,9.05
2022-09-28T00:16:03.941Z,9.75
2022-09-28T00:18:32.557Z,8.65
2022-09-28T00:21:08.552Z,9.02
2022-09-28T00:23:57.688Z,8.50
2022-09-28T00:26:26.124Z,7.80
2022-09-28T00:28:54.940Z,8.95
2022-09-28T00:31:23.337Z,8.80
2022-09-28T00:33:51.826Z,9.20
2022-09-28T00:36:21.164Z,8.75
2022-09-28T00:38:49.108Z,8.38
2022-09-28T00:41:18.568Z,8.73
2022-09-28T00:43:46.343Z,7.85
2022-09-28T00:46:19.665Z,8.82
2022-09-28T00:48:53.886Z,7.63
2022-09-28T00:51:26.315Z,7.75
2022-09-28T00:53:56.202Z,7.75
2022-09-28T00:56:28.177Z,7.43
2022-09-28T00:58:56.386Z,7.60
2022-09-28T01:01:24.218Z,8.02
2022-09-28T01:03:52.182Z,7.10
2022-09-28T01:06:22.346Z,7.75
2022-09-28T01:08:54.463Z,8.13
2022-09-28T01:11:22.415Z,8.02
2022-09-28T01:13:54.103Z,7.43
2022-09-28T01:16:34.631Z,7.70
2022-09-28T01:19:17.354Z,7.43
2022-09-28T01:21:53.441Z,7.35
2022-09-28T01:24:40.229Z,7.45
2022-09-28T01:27:16.625Z,7.20
2022-09-28T01:29:52.440Z,8.07
2022-09-28T01:32:29.922Z,8.25
2022-09-28T01:35:01.360Z,6.95
2022-09-28T01:37:35.146Z,8.13
2022-09-28T01:40:04.843Z,7.20
2022-09-28T01:42:37.878Z,8.20
2022-09-28T01:45:14.613Z,6.85
2022-09-28T01:47:44.283Z,8.10
2022-09-28T01:50:15.611Z,8.02
2022-09-28T01:52:51.320Z,8.25
2022-09-28T01:55:27.312Z,7.82
2022-09-28T01:58:01.492Z,8.52
2022-09-28T02:00:29.654Z,7.43
2022-09-28T02:03:02.943Z,8.20
2022-09-28T02:05:34.045Z,8.48
2022-09-28T02:08:07.966Z,7.97
2022-09-28T02:10:42.902Z,8.10
2022-09-28T02:13:17.403Z,8.20
2022-09-28T02:15:51.602Z,7.15
2022-09-28T02:18:19.678Z,8.10
2022-09-28T02:21:06.212Z,8.52
2022-09-28T02:23:38.309Z,8.38
2022-09-28T02:26:10.150Z,8.20
2022-09-28T02:28:39.488Z,8.55
2022-09-28T02:31:07.543Z,8.30
2022-09-28T02:33:38.771Z,9.10
2022-09-28T02:36:07.534Z,8.15
2022-09-28T02:38:35.484Z,8.43
2022-09-28T02:41:07.066Z,7.88
2022-09-28T02:43:51.205Z,7.93
2022-09-28T02:46:29.653Z,8.63
2022-09-28T02:49:21.290Z,7.75
2022-09-28T02:52:06.240Z,8.38
2022-09-28T02:54:59.019Z,8.73
2022-09-28T02:57:38.432Z,7.32
2022-09-28T03:00:10.652Z,8.15
2022-09-28T03:02:49.843Z,8.52
2022-09-28T03:05:23.090Z,8.52
2022-09-28T03:07:58.795Z,8.25
2022-09-28T03:10:33.752Z,7.68
2022-09-28T03:13:02.801Z,7.80
2022-09-28T03:15:33.099Z,7.32
2022-09-28T03:18:01.395Z,8.43
2022-09-28T03:20:30.922Z,8.70
2022-09-28T03:25:46.827Z,7.97
2022-09-28T03:28:14.609Z,7.85
2022-09-28T03:30:44.035Z,8.05
2022-09-28T03:33:11.835Z,7.80
2022-09-28T03:35:39.694Z,8.00
2022-09-28T03:38:07.585Z,7.95
2022-09-28T03:40:35.424Z,7.65
2022-09-28T03:43:03.222Z,6.95
2022-09-28T03:45:31.100Z,6.80
2022-09-28T03:48:00.379Z,6.82
2022-09-28T03:50:28.472Z,7.00
2022-09-28T03:52:56.259Z,6.95
2022-09-28T03:55:24.085Z,7.40
2022-09-28T03:57:56.025Z,7.35
2022-09-28T04:00:24.210Z,6.70
2022-09-28T04:02:52.034Z,6.13
2022-09-28T04:05:21.278Z,6.50
2022-09-28T04:07:49.080Z,6.63
2022-09-28T04:10:17.353Z,6.25
2022-09-28T04:12:45.958Z,5.97
2022-09-28T04:15:13.939Z,6.07
2022-09-28T04:17:41.731Z,6.88
2022-09-28T04:20:10.258Z,5.75
2022-09-28T04:22:39.813Z,5.78
2022-09-28T04:25:07.964Z,6.50
2022-09-28T04:27:53.319Z,5.88
2022-09-28T04:30:21.898Z,6.43
2022-09-28T04:32:49.978Z,5.53
2022-09-28T04:35:17.846Z,5.72
2022-09-28T04:37:47.019Z,5.43
2022-09-28T04:40:15.119Z,5.50
2022-09-28T04:42:43.015Z,6.30
2022-09-28T04:45:11.803Z,5.75
2022-09-28T04:47:39.666Z,5.05
2022-09-28T04:50:08.500Z,5.63
2022-09-28T04:52:37.579Z,4.93
2022-09-28T04:55:07.963Z,6.03
2022-09-28T04:57:36.000Z,5.00
2022-09-28T05:00:04.459Z,5.28
2022-09-28T05:02:32.570Z,6.15
2022-09-28T05:05:00.940Z,5.25
2022-09-28T05:07:28.810Z,4.45
2022-09-28T05:09:56.617Z,5.35
2022-09-28T05:12:26.471Z,5.25
2022-09-28T05:14:54.296Z,5.30
2022-09-28T05:17:22.108Z,4.70
2022-09-28T05:19:52.771Z,5.78
2022-09-28T05:22:20.624Z,4.80
2022-09-28T05:24:48.427Z,4.93
2022-09-28T05:27:16.262Z,4.90
2022-09-28T05:29:45.451Z,4.55
2022-09-28T05:32:13.307Z,4.80
2022-09-28T05:34:41.103Z,5.10
2022-09-28T05:37:08.912Z,4.63
2022-09-28T05:39:36.731Z,4.63
2022-09-28T05:42:04.832Z,4.28
2022-09-28T05:44:32.713Z,4.55
2022-09-28T05:47:01.890Z,4.18
2022-09-28T05:49:31.779Z,4.57
2022-09-28T05:51:59.585Z,4.40
2022-09-28T05:54:27.394Z,4.22
2022-09-28T05:56:55.238Z,3.90
2022-09-28T05:59:23.047Z,4.03
2022-09-28T06:01:50.856Z,3.90
2022-09-28T06:04:20.962Z,4.05
2022-09-28T06:06:48.794Z,3.75
2022-09-28T06:09:16.599Z,3.80
2022-09-28T06:11:44.435Z,4.05
2022-09-28T06:14:13.783Z,3.60
2022-09-28T06:16:43.824Z,4.63
2022-09-28T06:19:12.942Z,3.55
2022-09-28T06:21:42.210Z,3.13
2022-09-28T06:24:10.091Z,3.33
2022-09-28T06:26:37.972Z,4.00
2022-09-28T06:29:05.835Z,3.40
2022-09-28T06:31:33.719Z,3.60
2022-09-28T06:34:02.103Z,2.83
2022-09-28T06:36:31.410Z,3.13
2022-09-28T06:39:00.739Z,3.22
2022-09-28T06:41:28.654Z,3.72
2022-09-28T06:43:56.451Z,3.10
2022-09-28T06:46:24.448Z,2.55
2022-09-28T06:48:52.784Z,2.70
2022-09-28T06:51:20.602Z,2.70
2022-09-28T06:53:48.403Z,2.90
2022-09-28T06:56:18.199Z,2.58
2022-09-28T06:58:46.010Z,2.80
2022-09-28T07:01:13.878Z,2.88
2022-09-28T07:03:41.807Z,2.20
2022-09-28T07:06:12.652Z,2.50
2022-09-28T07:08:40.847Z,2.40
2022-09-28T07:11:09.996Z,2.55
2022-09-28T07:13:50.933Z,2.47
2022-09-28T07:16:24.088Z,2.65
2022-09-28T07:18:54.434Z,2.03
2022-09-28T07:21:29.869Z,1.98
2022-09-28T07:23:58.246Z,3.40
2022-09-28T07:26:26.903Z,2.03
2022-09-28T07:28:56.319Z,1.95
2022-09-28T07:31:25.523Z,2.13
2022-09-28T07:33:54.130Z,2.00
2022-09-28T07:36:22.850Z,2.00
2022-09-28T07:38:50.919Z,1.75
2022-09-28T07:41:21.806Z,2.00
2022-09-28T07:43:50.201Z,1.70
2022-09-28T07:46:20.664Z,2.00
2022-09-28T07:48:49.712Z,1.92
2022-09-28T07:51:19.798Z,2.17
2022-09-28T07:53:48.106Z,2.20
2022-09-28T07:56:17.466Z,1.67
2022-09-28T07:58:45.262Z,1.70
2022-09-28T08:01:15.022Z,1.92
2022-09-28T08:03:47.218Z,1.42
2022-09-28T08:06:17.139Z,2.00
2022-09-28T08:08:45.582Z,1.70
2022-09-28T08:11:14.375Z,1.60
2022-09-28T08:13:42.535Z,1.27
2022-09-28T08:16:11.260Z,1.65
2022-09-28T08:18:39.101Z,1.50
2022-09-28T08:21:25.558Z,1.25
2022-09-28T08:23:54.038Z,1.42
2022-09-28T08:26:21.859Z,1.80
2022-09-28T08:28:50.162Z,1.50
2022-09-28T08:31:18.115Z,1.25
2022-09-28T08:33:45.983Z,1.42
2022-09-28T08:36:15.572Z,1.35
2022-09-28T08:38:43.595Z,1.43
2022-09-28T08:41:20.024Z,1.30
2022-09-28T08:44:04.614Z,1.52
2022-09-28T08:46:41.205Z,1.42
2022-09-28T08:49:24.917Z,1.30
2022-09-28T08:51:59.525Z,1.40
2022-09-28T08:54:35.049Z,1.33
2022-09-28T08:57:06.657Z,1.38
2022-09-28T08:59:46.691Z,1.30
2022-09-28T09:02:19.468Z,1.80
2022-09-28T09:04:47.513Z,1.30
2022-09-28T09:07:33.102Z,1.70
2022-09-28T09:10:09.183Z,1.73
2022-09-28T09:12:49.561Z,0.98
2022-09-28T09:15:31.927Z,1.20
2022-09-28T09:18:16.633Z,1.10
2022-09-28T09:20:51.787Z,1.70
2022-09-28T09:23:31.461Z,1.63
2022-09-28T09:26:04.802Z,1.20
2022-09-28T09:29:02.251Z,1.40
2022-09-28T09:31:48.918Z,1.17
2022-09-28T09:34:35.343Z,1.30
2022-09-28T09:37:18.467Z,1.10
2022-09-28T09:40:03.119Z,1.35
2022-09-28T09:42:49.126Z,1.20
2022-09-28T09:45:32.346Z,1.10
2022-09-28T09:48:04.795Z,1.48
2022-09-28T09:50:39.931Z,1.50
2022-09-28T09:53:21.059Z,1.02
2022-09-28T09:55:57.243Z,1.67
2022-09-28T09:58:29.756Z,1.33
2022-09-28T10:01:08.388Z,1.38
2022-09-28T10:03:40.784Z,1.42
2022-09-28T10:06:13.925Z,1.30
2022-09-28T10:08:45.423Z,1.30
2022-09-28T10:11:19.106Z,1.30
2022-09-28T10:13:49.285Z,0.90
2022-09-28T10:16:19.342Z,1.08
2022-09-28T10:18:47.386Z,1.85
2022-09-28T10:21:15.591Z,1.45
2022-09-28T10:23:44.519Z,1.27
2022-09-28T10:26:25.325Z,1.30
2022-09-28T10:28:56.737Z,1.33
2022-09-28T10:31:42.050Z,0.95
2022-09-28T10:34:14.200Z,1.15
2022-09-28T10:36:52.105Z,1.67
2022-09-28T10:39:32.918Z,1.42
2022-09-28T10:42:04.650Z,1.27
2022-09-28T10:44:35.328Z,1.38
2022-09-28T10:47:08.024Z,1.10
2022-09-28T10:49:47.101Z,1.63
2022-09-28T10:52:35.179Z,1.20
2022-09-28T10:55:23.671Z,1.40
2022-09-28T10:57:53.117Z,0.93
2022-09-28T11:00:36.510Z,1.13
2022-09-28T11:03:05.231Z,0.90
2022-09-28T11:05:33.505Z,1.50
2022-09-28T11:08:08.282Z,1.10
2022-09-28T11:10:36.192Z,0.95
2022-09-28T11:13:10.510Z,0.88
2022-09-28T11:15:44.103Z,1.15
2022-09-28T11:18:26.562Z,0.88
2022-09-28T11:21:11.962Z,0.88
2022-09-28T11:23:42.163Z,0.70
2022-09-28T11:26:17.637Z,1.00
2022-09-28T11:28:52.890Z,1.10
2022-09-28T11:31:28.136Z,0.90
2022-09-28T11:34:14.574Z,0.88
2022-09-28T11:37:01.876Z,1.10
2022-09-28T11:39:39.871Z,1.10
2022-09-28T11:42:18.690Z,1.10
2022-09-28T11:44:49.399Z,1.33
2022-09-28T11:47:38.775Z,1.08
2022-09-28T11:50:18.955Z,1.02
2022-09-28T11:52:56.746Z,1.10
2022-09-28T11:55:33.146Z,1.08
2022-09-28T11:58:06.150Z,1.10
2022-09-28T12:00:43.167Z,1.38
2022-09-28T12:03:17.287Z,1.17
2022-09-28T12:05:50.425Z,0.85
2022-09-28T12:08:25.443Z,1.35
2022-09-28T12:10:58.875Z,1.10
2022-09-28T12:13:29.686Z,0.98
2022-09-28T12:16:32.656Z,1.05
2022-09-28T12:21:37.848Z,1.52
2022-09-28T12:24:14.991Z,1.40
2022-09-28T12:26:48.710Z,1.40
2022-09-28T12:29:22.050Z,0.93
2022-09-28T12:32:07.112Z,1.00
2022-09-28T12:34:35.037Z,1.30
2022-09-28T12:37:16.815Z,1.08
2022-09-28T12:40:00.185Z,1.08
2022-09-28T12:42:53.020Z,1.45
2022-09-28T12:46:09.744Z,1.00
2022-09-28T12:51:59.668Z,1.20
2022-09-28T12:54:42.087Z,1.30
2022-09-28T12:57:30.994Z,1.38
2022-09-28T13:00:04.907Z,1.48
2022-09-28T13:03:00.815Z,1.15
2022-09-28T13:05:46.945Z,1.48
2022-09-28T13:08:22.156Z,1.20
2022-09-28T13:11:06.912Z,1.40
2022-09-28T13:13:45.362Z,1.00
2022-09-28T13:16:21.488Z,1.60
2022-09-28T13:18:58.188Z,2.20
2022-09-28T13:21:35.662Z,1.98
2022-09-28T13:24:20.898Z,1.45
2022-09-28T13:29:24.512Z,1.20
2022-09-28T13:31:55.746Z,1.20
2022-09-28T13:34:26.716Z,1.30
2022-09-28T13:37:24.801Z,1.00
2022-09-28T13:39:55.281Z,1.40
2022-09-28T13:45:27.919Z,1.50
2022-09-28T13:48:14.039Z,1.50
2022-09-28T13:51:15.614Z,1.40
2022-09-28T13:54:08.047Z,1.40
2022-09-28T13:56:44.216Z,1.30
2022-09-28T13:59:23.133Z,1.60
2022-09-28T14:01:57.413Z,1.55
2022-09-28T14:04:47.703Z,1.10
2022-09-28T14:07:21.497Z,1.30
2022-09-28T14:10:16.857Z,1.20
2022-09-28T14:12:47.340Z,1.10
2022-09-28T14:18:25.028Z,1.25
2022-09-28T14:21:06.756Z,1.05
2022-09-28T14:23:59.956Z,1.17
2022-09-28T14:27:11.239Z,1.05
2022-09-28T14:29:40.103Z,1.10
2022-09-28T14:32:23.806Z,1.20
2022-09-28T14:34:57.931Z,1.92
2022-09-28T14:37:47.167Z,1.20
2022-09-28T14:40:40.679Z,1.52
2022-09-28T14:43:27.415Z,1.50
2022-09-28T14:46:33.901Z,1.60
2022-09-28T14:49:03.692Z,1.50
2022-09-28T14:52:03.236Z,1.40
2022-09-28T14:54:41.729Z,1.55
2022-09-28T14:57:18.311Z,1.42
2022-09-28T14:59:48.324Z,1.27
2022-09-28T15:02:22.775Z,1.48
2022-09-28T15:04:54.643Z,1.42
2022-09-28T15:07:25.091Z,1.40
2022-09-28T15:09:54.647Z,1.35
2022-09-28T15:12:26.192Z,1.50
2022-09-28T15:15:02.197Z,1.38
2022-09-28T15:17:37.006Z,1.80
2022-09-28T15:20:23.802Z,1.80
2022-09-28T15:22:55.047Z,1.42
2022-09-28T15:25:26.105Z,1.80
2022-09-28T15:27:55.455Z,1.55
2022-09-28T15:30:27.659Z,1.70
2022-09-28T15:33:17.693Z,1.70
2022-09-28T15:35:47.726Z,2.17
2022-09-28T15:38:18.257Z,1.70
2022-09-28T15:43:33.134Z,1.85
2022-09-28T15:46:07.558Z,1.95
2022-09-28T15:48:42.072Z,1.67
2022-09-28T15:51:12.066Z,2.00
2022-09-28T15:53:44.931Z,1.85
2022-09-28T15:56:13.054Z,1.98
2022-09-28T15:58:40.969Z,2.28
2022-09-28T16:01:37.895Z,1.70
2022-09-28T16:04:38.355Z,2.13
2022-09-28T16:07:24.303Z,1.85
2022-09-28T16:10:00.067Z,2.00
2022-09-28T16:12:32.123Z,1.90
2022-09-28T16:15:05.214Z,2.10
2022-09-28T16:17:36.453Z,1.90
2022-09-28T16:20:19.690Z,1.52
2022-09-28T16:22:47.915Z,2.10
2022-09-28T16:25:22.086Z,2.00
2022-09-28T16:27:49.942Z,2.00
2022-09-28T16:30:24.431Z,1.85
2022-09-28T16:32:58.573Z,2.10
2022-09-28T16:35:29.187Z,2.00
2022-09-28T16:38:00.671Z,2.53
2022-09-28T16:40:29.531Z,2.45
2022-09-28T16:43:02.948Z,2.08
2022-09-28T16:45:31.004Z,2.50
2022-09-28T16:48:00.479Z,2.50
2022-09-28T16:50:28.746Z,2.78
2022-09-28T16:53:45.165Z,2.60
2022-09-28T16:56:13.914Z,2.28
2022-09-28T16:58:42.434Z,2.88
2022-09-28T17:01:12.971Z,3.05
2022-09-28T17:03:46.636Z,2.53
2022-09-28T17:06:16.060Z,2.92
2022-09-28T17:08:44.742Z,2.85
2022-09-28T17:11:20.180Z,2.80
2022-09-28T17:13:51.908Z,2.55
2022-09-28T17:16:32.568Z,2.22
2022-09-28T17:19:13.984Z,2.47
2022-09-28T17:21:41.915Z,2.42
2022-09-28T17:24:09.725Z,3.20
2022-09-28T17:26:37.548Z,3.45
2022-09-28T17:29:08.751Z,3.08
2022-09-28T17:31:36.571Z,2.63
2022-09-28T17:34:04.396Z,3.03
2022-09-28T17:36:33.622Z,2.67
2022-09-28T17:39:01.552Z,2.97
2022-09-28T17:41:29.367Z,3.05
2022-09-28T17:43:57.209Z,2.85
2022-09-28T17:46:29.391Z,3.03
2022-09-28T17:48:59.457Z,4.60
2022-09-28T17:51:28.522Z,10.57
2022-09-28T17:53:58.299Z,14.93
2022-09-28T17:56:31.627Z,14.13
2022-09-28T17:59:01.350Z,4.57
2022-09-28T18:01:33.959Z,3.92
2022-09-28T18:04:02.818Z,3.83
2022-09-28T18:06:32.206Z,3.72
2022-09-28T18:09:01.867Z,3.40
2022-09-28T18:11:29.909Z,3.50
2022-09-28T18:13:57.763Z,5.18
2022-09-28T18:16:27.899Z,5.47
2022-09-28T18:18:55.947Z,5.95
2022-09-28T18:21:23.726Z,6.03
2022-09-28T18:23:52.055Z,4.10
2022-09-28T18:26:21.280Z,6.82
2022-09-28T18:28:49.148Z,7.03
2022-09-28T18:31:19.127Z,4.47
2022-09-28T18:33:48.317Z,3.72
2022-09-28T18:36:16.131Z,4.00
2022-09-28T18:38:43.941Z,3.47
2022-09-28T18:41:15.694Z,3.90
2022-09-28T18:43:49.957Z,3.92
2022-09-28T18:46:19.030Z,4.00
2022-09-28T18:48:47.757Z,4.18
2022-09-28T18:51:15.985Z,3.70
2022-09-28T18:53:43.815Z,4.40
2022-09-28T18:56:13.184Z,4.32
2022-09-28T18:58:42.746Z,3.88
2022-09-28T19:01:31.362Z,4.37
2022-09-28T19:04:01.254Z,3.75
2022-09-28T19:06:29.833Z,3.80
2022-09-28T19:08:58.834Z,3.95
2022-09-28T19:11:26.907Z,4.00
2022-09-28T19:13:55.981Z,4.18
2022-09-28T19:16:26.798Z,3.90
2022-09-28T19:18:54.787Z,4.20
2022-09-28T19:21:22.760Z,4.45
2022-09-28T19:23:50.758Z,4.50
2022-09-28T19:26:21.464Z,4.15
2022-09-28T19:28:49.644Z,3.53
2022-09-28T19:31:18.404Z,3.47
2022-09-28T19:33:48.236Z,4.03
2022-09-28T19:36:18.479Z,3.97
2022-09-28T19:38:47.107Z,4.45
2022-09-28T19:41:39.517Z,5.18
2022-09-28T19:44:13.507Z,4.32
2022-09-28T19:46:41.636Z,5.10
2022-09-28T19:49:19.366Z,4.50
2022-09-28T19:52:11.504Z,4.53
2022-09-28T19:54:37.630Z,4.95
2022-09-28T19:57:07.723Z,5.45
2022-09-28T19:59:36.595Z,3.35
2022-09-28T20:02:05.103Z,3.80
2022-09-28T20:04:34.710Z,4.00
2022-09-28T20:07:02.671Z,3.70
2022-09-28T20:09:30.650Z,4.13
2022-09-28T20:11:58.438Z,3.70
2022-09-28T20:14:31.814Z,5.28
2022-09-28T20:17:02.191Z,4.88
2022-09-28T20:19:29.978Z,4.80
2022-09-28T20:22:02.727Z,4.55
2022-09-28T20:24:31.291Z,5.53
2022-09-28T20:27:00.682Z,5.18
2022-09-28T20:29:28.482Z,5.55
2022-09-28T20:31:56.746Z,4.35
2022-09-28T20:34:24.607Z,3.97
2022-09-28T20:36:52.406Z,4.30
2022-09-28T20:39:21.638Z,4.07
2022-09-28T20:41:49.545Z,5.13
2022-09-28T20:44:17.547Z,5.60
2022-09-28T20:46:45.531Z,4.90
2022-09-28T20:49:13.385Z,5.30
2022-09-28T20:51:41.190Z,5.28
2022-09-28T20:54:09.323Z,5.68
2022-09-28T20:56:38.977Z,5.07
2022-09-28T20:59:09.691Z,5.20
2022-09-28T21:01:37.579Z,5.55
2022-09-28T21:04:06.790Z,4.93
2022-09-28T21:06:36.308Z,5.72
2022-09-28T21:09:05.417Z,5.77
2022-09-28T21:11:35.591Z,5.03
2022-09-28T21:14:06.850Z,4.97
2022-09-28T21:16:36.462Z,5.60
2022-09-28T21:19:04.925Z,6.03
2022-09-28T21:21:32.766Z,5.53
2022-09-28T21:24:00.679Z,5.25
2022-09-28T21:26:30.335Z,5.15
2022-09-28T21:29:00.283Z,5.80
2022-09-28T21:31:32.708Z,6.53
2022-09-28T21:34:00.886Z,6.00
2022-09-28T21:36:28.675Z,6.25
2022-09-28T21:38:56.551Z,4.80
2022-09-28T21:41:24.875Z,4.70
2022-09-28T21:43:52.714Z,4.65
2022-09-28T21:46:20.658Z,5.57
2022-09-28T21:48:54.310Z,5.25
2022-09-28T21:51:22.601Z,4.55
2022-09-28T21:53:50.433Z,5.15
2022-09-28T21:56:18.796Z,4.72
2022-09-28T21:58:46.703Z,4.72
2022-09-28T22:01:18.151Z,4.53
2022-09-28T22:03:48.595Z,4.50
2022-09-28T22:06:19.418Z,5.00
2022-09-28T22:08:48.427Z,4.78
2022-09-28T22:11:18.660Z,4.63
2022-09-28T22:13:48.366Z,5.35
2022-09-28T22:16:18.089Z,4.30
2022-09-28T22:18:46.646Z,4.68
2022-09-28T22:21:16.174Z,4.30
2022-09-28T22:23:45.472Z,4.67
2022-09-28T22:26:18.004Z,4.40
2022-09-28T22:28:47.941Z,4.95
2022-09-28T22:31:16.493Z,4.30
2022-09-28T22:33:44.947Z,4.63
2022-09-28T22:36:15.012Z,4.70
2022-09-28T22:38:43.408Z,4.65
2022-09-28T22:41:13.634Z,4.90
2022-09-28T22:43:41.519Z,5.03
2022-09-28T22:46:12.005Z,4.43
2022-09-28T22:48:40.201Z,4.60
2022-09-28T22:51:08.302Z,4.00
2022-09-28T22:53:36.895Z,4.15
2022-09-28T22:56:06.992Z,3.85
2022-09-28T22:58:37.505Z,4.22
2022-09-28T23:01:09.395Z,4.10
2022-09-28T23:03:40.122Z,6.78
2022-09-28T23:06:08.545Z,4.50
2022-09-28T23:08:37.082Z,4.35
2022-09-28T23:11:05.350Z,3.90
2022-09-28T23:13:33.857Z,4.68
2022-09-28T23:16:05.141Z,4.38
2022-09-28T23:18:34.631Z,4.38
2022-09-28T23:21:04.413Z,4.75
2022-09-28T23:23:32.793Z,5.53
2022-09-28T23:26:02.033Z,4.68
2022-09-28T23:28:30.475Z,4.40
2022-09-28T23:31:10.832Z,4.53
2022-09-28T23:36:07.222Z,4.68
2022-09-28T23:38:35.537Z,4.18
2022-09-28T23:41:03.384Z,4.85
2022-09-28T23:43:31.223Z,4.60
2022-09-28T23:45:59.055Z,4.55
2022-09-28T23:48:28.246Z,4.57
2022-09-28T23:50:56.089Z,4.85
2022-09-28T23:53:23.917Z,4.10
2022-09-28T23:55:51.828Z,5.30
2022-09-28T23:58:19.865Z,4.10
